Time;durP1;ratioP1;P1;durP2;ratioP2;P2;SDS_P1;SDS_P2;PMS_P1;PMS_P2;Temp;Humidity;BMP_temperature;BMP_pressure;BME280_temperature;BME280_humidity;BME280_pressure;Samples;Min_cycle;Max_cycle;Signal;HPM_P1;HPM_P2
2023/08/18 00:01:53;;;;;;;;;;;;;;;23.06;57.65;101112.06;4147303;28;19926;-63
2023/08/18 00:03:57;;;;;;;;;;;;;;;23.05;57.39;101121.06;4147575;28;20013;-63
2023/08/18 00:05:59;;;;;;;;;;;;;;;23.06;57.29;101116.53;4147454;28;20028;-63
2023/08/18 00:08:04;;;;;;;;;;;;;;;23.05;57.39;101101.41;4147171;28;20370;-63
2023/08/18 00:10:06;;;;;;;;;;;;;;;23.04;57.53;101105.06;4146933;28;19925;-62
2023/08/18 00:12:07;;;;;;;;;;;;;;;23.04;57.75;101105.06;4147182;28;19926;-63
2023/08/18 00:14:09;;;;;;;;;;;;;;;23.03;57.59;101101.56;4147505;28;19929;-63
2023/08/18 00:16:11;;;;;;;;;;;;;;;23.02;57.55;101099.84;4145744;28;19929;-63
2023/08/18 00:18:12;;;;;;;;;;;;;;;23.02;57.60;101105.22;4130601;28;19952;-63
2023/08/18 00:20:14;;;;;;;;;;;;;;;23.01;57.79;101100.81;4138915;28;20488;-63
2023/08/18 00:22:15;;;;;;;;;;;;;;;23.01;57.53;101100.81;4149228;28;19926;-63
2023/08/18 00:24:17;;;;;;;;;;;;;;;23.01;57.86;101100.81;4150288;28;19961;-63
2023/08/18 00:26:18;;;;;;;;;;;;;;;23.01;57.61;101103.50;4150279;28;19931;-62
2023/08/18 00:28:20;;;;;;;;;;;;;;;23.01;57.55;101105.34;4149523;28;19972;-62
2023/08/18 00:30:24;;;;;;;;;;;;;;;23.00;57.66;101104.47;4149952;28;19929;-64
2023/08/18 00:32:26;;;;;;;;;;;;;;;23.00;57.87;101101.78;4149945;28;19926;-62
2023/08/18 00:34:27;;;;;;;;;;;;;;;23.00;57.61;101106.31;4150247;28;19926;-63
2023/08/18 00:36:30;;;;;;;;;;;;;;;22.98;57.61;101093.03;4149880;28;19929;-63
2023/08/18 00:38:31;;;;;;;;;;;;;;;22.98;57.69;101093.88;4149517;28;19930;-62
2023/08/18 00:40:33;;;;;;;;;;;;;;;22.97;57.71;101094.03;4149484;28;20044;-63
2023/08/18 00:42:34;;;;;;;;;;;;;;;22.96;57.64;101093.16;4148699;28;19932;-63
2023/08/18 00:44:36;;;;;;;;;;;;;;;22.97;57.74;101099.38;4149986;28;19926;-63
2023/08/18 00:46:38;;;;;;;;;;;;;;;22.96;57.88;101086.94;4149701;28;20340;-63
2023/08/18 00:48:39;;;;;;;;;;;;;;;22.96;57.81;101092.31;4149187;28;20028;-62
2023/08/18 00:50:42;;;;;;;;;;;;;;;22.96;57.85;101084.25;4149938;28;19935;-63
2023/08/18 00:52:44;;;;;;;;;;;;;;;22.96;58.00;101085.09;4149654;28;19933;-63
2023/08/18 00:54:47;;;;;;;;;;;;;;;22.95;57.57;101082.56;4149999;28;20374;-62
2023/08/18 00:56:49;;;;;;;;;;;;;;;22.94;58.05;101080.84;4149568;28;20013;-63
2023/08/18 00:58:51;;;;;;;;;;;;;;;22.93;57.79;101077.31;4148993;28;19940;-63
2023/08/18 01:00:52;;;;;;;;;;;;;;;22.93;57.79;101080.00;4149168;28;20351;-63
2023/08/18 01:02:54;;;;;;;;;;;;;;;22.93;57.83;101081.81;4149505;28;20371;-62
2023/08/18 01:05:00;;;;;;;;;;;;;;;22.93;57.92;101089.88;4149931;28;19925;-62
2023/08/18 01:07:03;;;;;;;;;;;;;;;22.92;58.35;101083.66;4149549;28;19930;-63
2023/08/18 01:09:05;;;;;;;;;;;;;;;22.91;58.21;101084.63;4148849;28;19929;-62
2023/08/18 01:11:19;;;;;;;;;;;;;;;22.92;58.79;101086.34;4149528;28;19926;-63
2023/08/18 01:13:26;;;;;;;;;;;;;;;22.91;57.88;101087.31;4149324;28;19939;-62
2023/08/18 01:15:32;;;;;;;;;;;;;;;22.91;58.40;101087.31;4149302;28;19932;-62
2023/08/18 01:17:54;;;;;;;;;;;;;;;22.90;58.32;101090.97;4149350;28;20294;-62
2023/08/18 01:19:56;;;;;;;;;;;;;;;22.89;58.40;101086.63;4148629;28;19925;-63
2023/08/18 01:21:58;;;;;;;;;;;;;;;22.89;58.69;101083.94;4149309;28;19934;-62
2023/08/18 01:24:01;;;;;;;;;;;;;;;22.88;57.99;101076.88;4149184;28;19937;-62
2023/08/18 01:26:02;;;;;;;;;;;;;;;22.89;58.24;101083.06;4149404;28;19926;-63
2023/08/18 01:28:04;;;;;;;;;;;;;;;22.88;58.04;101078.66;4149135;28;19926;-63
2023/08/18 01:30:06;;;;;;;;;;;;;;;22.87;57.78;101077.84;4148168;28;19968;-62
2023/08/18 01:32:10;;;;;;;;;;;;;;;22.87;58.29;101072.47;4146747;28;20390;-63
2023/08/18 01:34:15;;;;;;;;;;;;;;;22.86;58.34;101064.56;4149238;28;20024;-62
2023/08/18 01:36:21;;;;;;;;;;;;;;;22.86;58.04;101067.25;4149342;28;19925;-62
2023/08/18 01:38:24;;;;;;;;;;;;;;;22.86;58.14;101068.06;4148433;28;20023;-63
2023/08/18 01:40:27;;;;;;;;;;;;;;;22.86;58.37;101069.94;4149034;28;19926;-63
2023/08/18 01:42:29;;;;;;;;;;;;;;;22.85;58.34;101060.16;4148955;28;20045;-62
2023/08/18 01:44:30;;;;;;;;;;;;;;;22.85;58.33;101069.06;4148729;28;20374;-62
2023/08/18 01:46:32;;;;;;;;;;;;;;;22.84;58.06;101061.97;4149002;28;20039;-62
2023/08/18 01:48:34;;;;;;;;;;;;;;;22.83;58.45;101060.28;4148127;28;20090;-62
2023/08/18 01:50:35;;;;;;;;;;;;;;;22.84;58.16;101055.78;4148632;28;19931;-62
2023/08/18 01:52:37;;;;;;;;;;;;;;;22.83;58.42;101059.44;4148929;28;20445;-62
2023/08/18 01:54:38;;;;;;;;;;;;;;;22.83;58.20;101054.06;4147819;28;19925;-63
2023/08/18 01:56:40;;;;;;;;;;;;;;;22.83;58.20;101056.75;4149103;28;20025;-62
2023/08/18 01:58:41;;;;;;;;;;;;;;;22.81;58.50;101057.72;4147683;28;19933;-62
2023/08/18 02:00:43;;;;;;;;;;;;;;;22.82;58.57;101055.91;4148456;28;20016;-62
2023/08/18 02:02:44;;;;;;;;;;;;;;;22.81;58.44;101055.03;4148747;28;19942;-62
2023/08/18 02:04:46;;;;;;;;;;;;;;;22.80;58.28;101058.69;4147305;28;19926;-63
2023/08/18 02:06:48;;;;;;;;;;;;;;;22.81;58.22;101056.88;4148894;28;19926;-63
2023/08/18 02:08:49;;;;;;;;;;;;;;;22.80;58.20;101052.50;4147923;28;19932;-63
2023/08/18 02:10:51;;;;;;;;;;;;;;;22.80;58.34;101052.50;4148324;28;20021;-62
2023/08/18 02:12:52;;;;;;;;;;;;;;;22.80;58.41;101057.88;4148219;28;19930;-62
2023/08/18 02:14:54;;;;;;;;;;;;;;;22.79;58.42;101056.16;4148352;28;19926;-63
2023/08/18 02:16:56;;;;;;;;;;;;;;;22.78;58.15;101052.63;4148585;28;19925;-62
2023/08/18 02:18:57;;;;;;;;;;;;;;;22.78;58.22;101052.63;4147717;28;20331;-63
2023/08/18 02:20:59;;;;;;;;;;;;;;;22.79;58.34;101056.16;4137638;28;19925;-63
2023/08/18 02:23:01;;;;;;;;;;;;;;;22.78;58.70;101047.28;4148639;28;19995;-62
2023/08/18 02:25:02;;;;;;;;;;;;;;;22.77;58.43;101037.50;4148211;28;20046;-62
2023/08/18 02:27:04;;;;;;;;;;;;;;;22.76;58.42;101040.31;4147076;28;19926;-62
2023/08/18 02:29:05;;;;;;;;;;;;;;;22.76;58.49;101042.97;4147709;28;20233;-63
2023/08/18 02:31:07;;;;;;;;;;;;;;;22.76;58.33;101045.66;4148182;28;19979;-62
2023/08/18 02:33:09;;;;;;;;;;;;;;;22.74;58.38;101050.31;4148503;28;19960;-64
2023/08/18 02:35:10;;;;;;;;;;;;;;;22.75;58.24;101052.03;4148197;28;19925;-62
2023/08/18 02:37:12;;;;;;;;;;;;;;;22.74;58.38;101053.00;4148485;28;19926;-62
2023/08/18 02:39:13;;;;;;;;;;;;;;;22.73;58.76;101052.13;4147513;28;20281;-62
2023/08/18 02:41:16;;;;;;;;;;;;;;;22.73;58.70;101048.63;4147538;28;20013;-61
2023/08/18 02:43:18;;;;;;;;;;;;;;;22.73;58.46;101036.03;4148064;28;19925;-62
2023/08/18 02:45:20;;;;;;;;;;;;;;;22.72;58.82;101034.34;4146972;28;19937;-62
2023/08/18 02:47:22;;;;;;;;;;;;;;;22.72;58.51;101038.88;4148082;28;19971;-61
2023/08/18 02:49:23;;;;;;;;;;;;;;;22.72;58.59;101036.19;4147473;28;19926;-62
2023/08/18 02:51:25;;;;;;;;;;;;;;;22.70;58.65;101033.63;4146802;28;19925;-61
2023/08/18 02:53:26;;;;;;;;;;;;;;;22.71;58.78;101032.66;4148011;28;19925;-61
2023/08/18 02:55:28;;;;;;;;;;;;;;;22.70;58.85;101041.69;4147962;28;20028;-61
2023/08/18 02:57:29;;;;;;;;;;;;;;;22.69;58.63;101034.59;4147978;28;19933;-62
2023/08/18 02:59:31;;;;;;;;;;;;;;;22.70;58.82;101035.44;4147707;28;20070;-63
2023/08/18 03:01:33;;;;;;;;;;;;;;;22.70;58.50;101032.75;4147899;28;19929;-62
2023/08/18 03:03:34;;;;;;;;;;;;;;;22.69;58.61;101031.94;4148258;28;20012;-62
2023/08/18 03:05:37;;;;;;;;;;;;;;;22.68;58.68;101027.53;4147829;28;19926;-63
2023/08/18 03:07:38;;;;;;;;;;;;;;;22.67;58.99;101020.47;4147908;28;19926;-62
2023/08/18 03:09:40;;;;;;;;;;;;;;;22.67;58.68;101008.91;4147476;28;20311;-63
2023/08/18 03:11:41;;;;;;;;;;;;;;;22.66;58.74;101010.72;4146018;28;20410;-62
2023/08/18 03:13:43;;;;;;;;;;;;;;;22.65;58.62;101012.56;4148014;28;19930;-63
2023/08/18 03:15:44;;;;;;;;;;;;;;;22.65;58.87;101007.19;4147843;28;19933;-62
2023/08/18 03:17:46;;;;;;;;;;;;;;;22.64;58.64;101007.34;4147932;28;19972;-62
2023/08/18 03:19:48;;;;;;;;;;;;;;;22.64;58.78;101002.81;4147204;28;19926;-63
2023/08/18 03:21:49;;;;;;;;;;;;;;;22.64;58.83;101001.97;4147744;28;19926;-62
2023/08/18 03:23:51;;;;;;;;;;;;;;;22.65;59.06;100998.31;4147938;28;20015;-63
2023/08/18 03:26:03;;;;;;;;;;;;;;;22.64;59.00;101007.34;4147509;28;20016;-63
2023/08/18 03:28:05;;;;;;;;;;;;;;;22.63;58.78;101000.25;4147807;28;19976;-63
2023/08/18 03:30:07;;;;;;;;;;;;;;;22.63;58.70;101000.25;4145997;28;20405;-62
2023/08/18 03:32:08;;;;;;;;;;;;;;;22.63;59.01;101002.94;4147851;28;19941;-62
2023/08/18 03:34:10;;;;;;;;;;;;;;;22.64;59.06;101001.97;4148019;28;20740;-62
2023/08/18 03:36:11;;;;;;;;;;;;;;;22.62;59.07;100999.41;4147666;28;19933;-63
2023/08/18 03:38:13;;;;;;;;;;;;;;;22.62;58.85;100991.34;4147815;28;19952;-63
2023/08/18 03:40:14;;;;;;;;;;;;;;;22.62;58.75;100995.88;4146984;28;20386;-62
2023/08/18 03:42:16;;;;;;;;;;;;;;;22.62;58.83;100995.88;4147462;28;19976;-63
2023/08/18 03:44:17;;;;;;;;;;;;;;;22.61;59.08;100991.50;4147891;28;20032;-62
2023/08/18 03:46:22;;;;;;;;;;;;;;;22.61;59.19;100992.34;4147596;28;19972;-62
2023/08/18 03:48:23;;;;;;;;;;;;;;;22.61;58.86;100997.72;4147602;28;19960;-64
2023/08/18 03:50:25;;;;;;;;;;;;;;;22.60;59.19;100990.66;4146915;28;19948;-63
2023/08/18 03:52:26;;;;;;;;;;;;;;;22.60;59.15;100996.00;4147586;28;19968;-62
2023/08/18 03:54:28;;;;;;;;;;;;;;;22.60;59.05;100992.47;4147492;28;19933;-63
2023/08/18 03:56:29;;;;;;;;;;;;;;;22.60;59.31;100995.13;4150661;28;19973;-63
2023/08/18 03:58:31;;;;;;;;;;;;;;;22.60;58.97;100993.31;4150666;28;19926;-62
2023/08/18 04:00:32;;;;;;;;;;;;;;;22.58;59.03;100989.91;4149803;28;19925;-62
2023/08/18 04:02:34;;;;;;;;;;;;;;;22.58;58.82;100987.22;4150520;28;20078;-63
2023/08/18 04:04:35;;;;;;;;;;;;;;;22.58;59.45;100991.75;4150591;28;20366;-62
2023/08/18 04:06:37;;;;;;;;;;;;;;;22.57;59.02;100990.03;4150588;28;19971;-62
2023/08/18 04:08:39;;;;;;;;;;;;;;;22.56;59.25;100994.53;4149941;28;19926;-62
2023/08/18 04:10:41;;;;;;;;;;;;;;;22.56;59.01;100991.03;4150170;28;20299;-62
2023/08/18 04:12:43;;;;;;;;;;;;;;;22.56;59.16;100988.34;4150158;28;19925;-63
2023/08/18 04:14:44;;;;;;;;;;;;;;;22.54;59.13;100985.78;4150525;28;20314;-62
2023/08/18 04:16:46;;;;;;;;;;;;;;;22.55;58.99;100992.84;4150703;28;19929;-63
2023/08/18 04:18:48;;;;;;;;;;;;;;;22.55;59.13;100994.69;4150093;28;19926;-63
2023/08/18 04:20:51;;;;;;;;;;;;;;;22.55;59.42;100997.34;4149322;28;21369;-64
2023/08/18 04:22:53;;;;;;;;;;;;;;;22.55;59.29;100998.19;4149774;28;19964;-62
2023/08/18 04:24:54;;;;;;;;;;;;;;;22.54;59.30;100991.16;4150178;28;19929;-62
2023/08/18 04:26:59;;;;;;;;;;;;;;;22.54;59.14;100995.66;4150532;28;19997;-63
2023/08/18 04:29:01;;;;;;;;;;;;;;;22.54;59.20;100987.59;4149413;28;19970;-62
2023/08/18 04:31:02;;;;;;;;;;;;;;;22.54;59.03;100988.47;4150111;28;20375;-64
2023/08/18 04:33:04;;;;;;;;;;;;;;;22.53;59.36;100977.84;4150042;28;19925;-62
2023/08/18 04:35:05;;;;;;;;;;;;;;;22.53;59.31;100977.84;4150251;28;20037;-61
2023/08/18 04:37:07;;;;;;;;;;;;;;;22.52;59.15;100968.97;4149994;28;19957;-63
2023/08/18 04:39:10;;;;;;;;;;;;;;;22.53;59.25;100972.50;4149504;28;20035;-63
2023/08/18 04:41:11;;;;;;;;;;;;;;;22.53;59.21;100969.81;4149831;28;19972;-62
2023/08/18 04:43:13;;;;;;;;;;;;;;;22.53;59.48;100975.19;4150008;28;19925;-63
2023/08/18 04:45:14;;;;;;;;;;;;;;;22.52;59.43;100977.03;4149850;28;19929;-63
2023/08/18 04:47:17;;;;;;;;;;;;;;;22.52;59.09;100978.81;4148983;28;20365;-62
2023/08/18 04:49:19;;;;;;;;;;;;;;;22.51;59.18;100983.34;4149185;28;20012;-62
2023/08/18 04:51:20;;;;;;;;;;;;;;;22.52;59.08;100979.69;4149880;28;20381;-62
2023/08/18 04:53:22;;;;;;;;;;;;;;;22.52;59.43;100979.69;4149516;28;19932;-62
2023/08/18 04:55:23;;;;;;;;;;;;;;;22.51;59.12;100969.13;4149761;28;19926;-63
2023/08/18 04:57:25;;;;;;;;;;;;;;;22.51;59.15;100972.63;4149793;28;19992;-63
2023/08/18 04:59:26;;;;;;;;;;;;;;;22.50;59.30;100976.28;4148835;28;19980;-62
2023/08/18 05:01:28;;;;;;;;;;;;;;;22.51;59.36;100975.31;4149535;28;20449;-62
2023/08/18 05:03:29;;;;;;;;;;;;;;;22.51;59.28;100977.16;4150026;28;20012;-62
2023/08/18 05:05:33;;;;;;;;;;;;;;;22.51;59.16;100971.78;4149683;28;20021;-63
2023/08/18 05:07:34;;;;;;;;;;;;;;;22.48;59.45;100976.41;4149130;28;19979;-63
2023/08/18 05:09:36;;;;;;;;;;;;;;;22.49;59.64;100972.75;4147675;28;19925;-62
2023/08/18 05:11:37;;;;;;;;;;;;;;;22.49;59.46;100969.22;4149333;28;19932;-62
2023/08/18 05:13:41;;;;;;;;;;;;;;;22.48;59.25;100968.38;4149692;28;20013;-63
2023/08/18 05:15:43;;;;;;;;;;;;;;;22.48;59.17;100972.91;4149178;28;20371;-63
2023/08/18 05:17:44;;;;;;;;;;;;;;;22.48;59.34;100971.06;4149611;28;20036;-63
2023/08/18 05:19:46;;;;;;;;;;;;;;;22.49;59.31;100974.56;4148736;28;19926;-63
2023/08/18 05:21:47;;;;;;;;;;;;;;;22.48;59.06;100973.75;4149123;28;19957;-61
2023/08/18 05:23:49;;;;;;;;;;;;;;;22.47;59.15;100972.03;4149581;28;19925;-62
2023/08/18 05:25:54;;;;;;;;;;;;;;;22.48;59.45;100962.19;4149354;28;19925;-62
2023/08/18 05:27:56;;;;;;;;;;;;;;;22.48;59.15;100964.84;4149388;28;20024;-63
2023/08/18 05:29:59;;;;;;;;;;;;;;;22.47;59.43;100964.00;4148591;28;19926;-62
2023/08/18 05:32:00;;;;;;;;;;;;;;;22.48;59.20;100959.50;4149442;28;20405;-61
2023/08/18 05:34:02;;;;;;;;;;;;;;;22.48;59.60;100954.13;4149486;28;19929;-62
2023/08/18 05:36:04;;;;;;;;;;;;;;;22.48;59.84;100960.34;4148768;28;19969;-62
2023/08/18 05:38:11;;;;;;;;;;;;;;;22.47;59.16;100952.44;4149077;28;20437;-62
2023/08/18 05:40:13;;;;;;;;;;;;;;;22.46;59.38;100948.88;4148479;28;20374;-61
2023/08/18 05:42:15;;;;;;;;;;;;;;;22.47;59.46;100949.75;4145417;28;19931;-62
2023/08/18 05:44:17;;;;;;;;;;;;;;;22.47;59.71;100947.91;4149279;28;19926;-62
2023/08/18 05:46:18;;;;;;;;;;;;;;;22.46;59.85;100943.53;4149057;28;19953;-63
2023/08/18 05:48:20;;;;;;;;;;;;;;;22.46;59.23;100940.84;4149179;28;19933;-62
2023/08/18 05:50:21;;;;;;;;;;;;;;;22.47;60.14;100950.59;4147964;28;19926;-63
2023/08/18 05:52:23;;;;;;;;;;;;;;;22.46;60.07;100951.56;4148976;28;19926;-63
2023/08/18 05:54:24;;;;;;;;;;;;;;;22.48;60.23;100948.78;4149039;28;20033;-63
2023/08/18 05:56:26;;;;;;;;;;;;;;;22.47;60.31;100945.22;4148634;28;19925;-63
2023/08/18 05:58:28;;;;;;;;;;;;;;;22.47;60.09;100947.91;4149361;28;19964;-63
2023/08/18 06:00:30;;;;;;;;;;;;;;;22.48;60.07;100948.78;4148395;28;20366;-62
2023/08/18 06:02:32;;;;;;;;;;;;;;;22.48;60.21;100949.63;4148728;28;20009;-62
2023/08/18 06:04:33;;;;;;;;;;;;;;;22.48;60.31;100940.75;4148445;28;19926;-63
2023/08/18 06:06:35;;;;;;;;;;;;;;;22.47;60.20;100939.88;4148604;28;19934;-62
2023/08/18 06:08:36;;;;;;;;;;;;;;;22.47;60.27;100939.03;4148698;28;19932;-62
2023/08/18 06:10:38;;;;;;;;;;;;;;;22.47;60.29;100947.06;4148069;28;19925;-63
2023/08/18 06:12:39;;;;;;;;;;;;;;;22.49;60.37;100939.72;4148330;28;19925;-63
2023/08/18 06:14:41;;;;;;;;;;;;;;;22.48;60.54;100946.94;4148415;28;20027;-63
2023/08/18 06:16:42;;;;;;;;;;;;;;;22.49;60.32;100948.66;4148652;28;20438;-63
2023/08/18 06:18:44;;;;;;;;;;;;;;;22.48;60.51;100949.63;4147556;28;19925;-62
2023/08/18 06:20:46;;;;;;;;;;;;;;;22.49;60.48;100943.28;4147726;28;19939;-62
2023/08/18 06:22:47;;;;;;;;;;;;;;;22.49;60.59;100947.78;4148466;28;20025;-62
2023/08/18 06:24:49;;;;;;;;;;;;;;;22.49;60.36;100945.09;4148483;28;19925;-63
2023/08/18 06:26:50;;;;;;;;;;;;;;;22.49;60.55;100951.31;4148134;28;19940;-63
2023/08/18 06:28:51;;;;;;;;;;;;;;;22.49;60.25;100943.28;4148724;28;19932;-63
2023/08/18 06:30:53;;;;;;;;;;;;;;;22.49;60.30;100940.59;4147833;28;19932;-63
2023/08/18 06:32:55;;;;;;;;;;;;;;;22.49;60.35;100934.38;4148099;28;19933;-62
2023/08/18 06:34:56;;;;;;;;;;;;;;;22.51;60.14;100939.63;4148191;28;19925;-62
2023/08/18 06:36:58;;;;;;;;;;;;;;;22.50;60.09;100938.75;4148461;28;19931;-63
2023/08/18 06:38:59;;;;;;;;;;;;;;;22.51;60.29;100939.63;4146950;28;20028;-63
2023/08/18 06:41:01;;;;;;;;;;;;;;;22.51;59.78;100945.84;4147627;28;19926;-63
2023/08/18 06:43:02;;;;;;;;;;;;;;;22.51;60.42;100940.47;4148274;28;19967;-62
2023/08/18 06:45:04;;;;;;;;;;;;;;;22.52;60.07;100946.66;4148380;28;19926;-62
2023/08/18 06:47:06;;;;;;;;;;;;;;;22.51;60.09;100940.47;4148454;28;19968;-62
2023/08/18 06:49:07;;;;;;;;;;;;;;;22.51;60.06;100945.00;4147783;28;19925;-62
2023/08/18 06:51:09;;;;;;;;;;;;;;;22.51;59.96;100945.84;4147616;28;19972;-65
2023/08/18 06:53:10;;;;;;;;;;;;;;;22.52;60.07;100949.34;4148113;28;19980;-64
2023/08/18 06:55:14;;;;;;;;;;;;;;;22.51;60.27;100948.50;4148232;28;19937;-62
2023/08/18 06:57:27;;;;;;;;;;;;;;;22.51;60.15;100939.63;4148284;28;20009;-64
2023/08/18 06:59:29;;;;;;;;;;;;;;;22.52;60.32;100936.81;4147472;28;19969;-65
2023/08/18 07:01:30;;;;;;;;;;;;;;;22.52;60.07;100941.31;4147907;28;20445;-62
2023/08/18 07:03:32;;;;;;;;;;;;;;;22.51;60.38;100937.78;4147644;28;20398;-62
2023/08/18 07:05:34;;;;;;;;;;;;;;;22.52;60.17;100947.53;4148109;28;19926;-62
2023/08/18 07:07:35;;;;;;;;;;;;;;;22.52;60.20;100947.53;4148215;28;19929;-62
2023/08/18 07:09:37;;;;;;;;;;;;;;;22.52;60.19;100949.34;4147401;28;19926;-62
2023/08/18 07:11:38;;;;;;;;;;;;;;;22.53;60.23;100951.91;4146645;28;19930;-61
2023/08/18 07:13:39;;;;;;;;;;;;;;;22.53;59.95;100951.06;4147803;28;19925;-62
2023/08/18 07:15:41;;;;;;;;;;;;;;;22.54;60.37;100953.63;4147776;28;19932;-62
2023/08/18 07:17:42;;;;;;;;;;;;;;;22.55;60.14;100949.09;4147836;28;19925;-62
2023/08/18 07:19:44;;;;;;;;;;;;;;;22.53;60.24;100943.88;4147146;28;20343;-62
2023/08/18 07:21:46;;;;;;;;;;;;;;;22.54;60.24;100945.59;4147860;28;19976;-61
2023/08/18 07:23:47;;;;;;;;;;;;;;;22.55;60.12;100939.22;4147874;28;19929;-62
2023/08/18 07:25:49;;;;;;;;;;;;;;;22.54;60.32;100940.22;4147696;28;19980;-65
2023/08/18 07:27:50;;;;;;;;;;;;;;;22.55;60.42;100944.59;4147970;28;20310;-62
2023/08/18 07:29:52;;;;;;;;;;;;;;;22.55;60.42;100941.91;4148886;28;20032;-62
2023/08/18 07:31:53;;;;;;;;;;;;;;;22.55;60.59;100941.06;4149583;28;20017;-62
2023/08/18 07:33:55;;;;;;;;;;;;;;;22.56;60.86;100945.44;4151300;28;20013;-65
2023/08/18 07:35:57;;;;;;;;;;;;;;;22.56;60.77;100950.81;4150536;28;20377;-62
2023/08/18 07:37:59;;;;;;;;;;;;;;;22.56;60.70;100948.13;4151248;28;19932;-64
2023/08/18 07:40:05;;;;;;;;;;;;;;;22.56;60.50;100950.81;4150064;28;19929;-61
2023/08/18 07:42:08;;;;;;;;;;;;;;;22.57;60.55;100944.47;4150811;28;19930;-64
2023/08/18 07:44:10;;;;;;;;;;;;;;;22.57;60.89;100957.88;4150985;28;19926;-65
2023/08/18 07:46:11;;;;;;;;;;;;;;;22.58;60.48;100964.94;4150390;28;20066;-64
2023/08/18 07:48:13;;;;;;;;;;;;;;;22.59;60.29;100958.59;4151078;28;19952;-64
2023/08/18 07:50:14;;;;;;;;;;;;;;;22.60;60.51;100962.97;4150149;28;19926;-64
2023/08/18 07:52:16;;;;;;;;;;;;;;;22.59;60.13;100958.59;4150879;28;19963;-64
2023/08/18 07:54:17;;;;;;;;;;;;;;;22.60;60.26;100965.66;4151119;28;19940;-63
2023/08/18 07:56:19;;;;;;;;;;;;;;;22.60;60.09;100960.28;4150599;28;20016;-63
2023/08/18 07:58:20;;;;;;;;;;;;;;;22.59;60.17;100953.22;4150896;28;20355;-63
2023/08/18 08:00:22;;;;;;;;;;;;;;;22.60;60.17;100952.25;4149572;28;20016;-63
2023/08/18 08:02:23;;;;;;;;;;;;;;;22.61;60.44;100953.97;4150485;28;19926;-63
2023/08/18 08:04:31;;;;;;;;;;;;;;;22.61;60.07;100945.91;4150889;28;19925;-64
2023/08/18 08:06:32;;;;;;;;;;;;;;;22.62;59.81;100958.34;4150532;28;19932;-64
2023/08/18 08:08:34;;;;;;;;;;;;;;;22.64;60.21;100959.06;4150817;28;19925;-64
2023/08/18 08:10:35;;;;;;;;;;;;;;;22.64;59.86;100962.59;4149698;28;19929;-64
2023/08/18 08:12:38;;;;;;;;;;;;;;;22.65;60.04;100961.63;4150190;28;19930;-64
2023/08/18 08:14:39;;;;;;;;;;;;;;;22.68;59.49;100970.41;4150228;28;20351;-64
2023/08/18 08:16:41;;;;;;;;;;;;;;;22.69;59.48;100972.09;4150147;28;19936;-64
2023/08/18 08:18:43;;;;;;;;;;;;;;;22.70;59.61;100966.59;4150566;28;19936;-64
2023/08/18 08:20:45;;;;;;;;;;;;;;;22.74;59.96;100964.53;4149489;28;19932;-63
2023/08/18 08:22:47;;;;;;;;;;;;;;;22.74;59.80;100959.16;4150161;28;20020;-64
2023/08/18 08:24:50;;;;;;;;;;;;;;;22.76;60.52;100965.22;4150390;28;19961;-64
2023/08/18 08:26:53;;;;;;;;;;;;;;;22.79;60.96;100970.34;4150026;28;19925;-64
2023/08/18 08:28:57;;;;;;;;;;;;;;;22.79;60.59;100970.34;4150193;28;19929;-64
2023/08/18 08:31:01;;;;;;;;;;;;;;;22.83;60.96;100968.25;4149355;28;20040;-64
2023/08/18 08:33:08;;;;;;;;;;;;;;;22.84;60.89;100967.28;4150127;28;19970;-64
2023/08/18 08:35:10;;;;;;;;;;;;;;;22.84;60.83;100969.97;4150367;28;19925;-64
2023/08/18 08:37:11;;;;;;;;;;;;;;;22.87;61.18;100964.31;4150105;28;19961;-64
2023/08/18 08:39:13;;;;;;;;;;;;;;;22.88;61.55;100961.53;4148924;28;19925;-64
2023/08/18 08:41:14;;;;;;;;;;;;;;;22.90;61.66;100954.19;4148683;28;20321;-64
2023/08/18 08:43:16;;;;;;;;;;;;;;;22.92;61.18;100944.19;4146464;28;19925;-64
2023/08/18 08:45:17;;;;;;;;;;;;;;;22.95;61.43;100945.75;4149997;28;20379;-64
2023/08/18 08:47:19;;;;;;;;;;;;;;;22.99;62.43;100947.22;4149970;28;20276;-63
2023/08/18 08:49:23;;;;;;;;;;;;;;;23.01;62.33;100955.97;4148630;28;19937;-63
2023/08/18 08:51:28;;;;;;;;;;;;;;;23.02;62.29;100954.16;4149080;28;19933;-63
2023/08/18 08:53:31;;;;;;;;;;;;;;;23.06;62.95;100959.13;4149202;28;19926;-64
2023/08/18 08:55:34;;;;;;;;;;;;;;;23.07;62.90;100951.94;4150194;28;20295;-64
2023/08/18 08:57:36;;;;;;;;;;;;;;;23.07;62.95;100950.09;4149654;28;19925;-64
2023/08/18 08:59:38;;;;;;;;;;;;;;;23.07;62.77;100947.41;4149621;28;19976;-64
2023/08/18 09:01:40;;;;;;;;;;;;;;;23.08;62.82;100942.91;4149264;28;19965;-64
2023/08/18 09:03:43;;;;;;;;;;;;;;;23.10;62.22;100947.16;4149542;28;19925;-64
2023/08/18 09:05:46;;;;;;;;;;;;;;;23.10;61.93;100944.47;4133583;28;19933;-64
2023/08/18 09:07:48;;;;;;;;;;;;;;;23.12;61.76;100945.19;4140854;28;20012;-63
2023/08/18 09:09:53;;;;;;;;;;;;;;;23.14;62.51;100931.66;4149131;28;19969;-65
2023/08/18 09:12:05;;;;;;;;;;;;;;;23.16;62.98;100927.00;4149541;28;20386;-64
2023/08/18 09:14:07;;;;;;;;;;;;;;;23.19;63.36;100918.72;4149276;28;19925;-64
2023/08/18 09:16:10;;;;;;;;;;;;;;;23.20;62.53;100923.09;4149617;28;19930;-64
2023/08/18 09:18:12;;;;;;;;;;;;;;;23.23;63.17;100922.84;4149342;28;19971;-64
2023/08/18 09:20:14;;;;;;;;;;;;;;;23.28;63.92;100923.28;4148944;28;20446;-64
2023/08/18 09:22:19;;;;;;;;;;;;;;;23.31;63.41;100918.63;4149352;28;19941;-64
2023/08/18 09:24:21;;;;;;;;;;;;;;;23.34;63.09;100915.69;4149292;28;20402;-64
2023/08/18 09:26:24;;;;;;;;;;;;;;;23.35;62.86;100920.91;4148317;28;20020;-64
2023/08/18 09:28:25;;;;;;;;;;;;;;;23.38;63.02;100917.97;4148787;28;19926;-63
2023/08/18 09:30:27;;;;;;;;;;;;;;;23.41;62.83;100914.16;4148741;28;20305;-64
2023/08/18 09:32:29;;;;;;;;;;;;;;;23.44;63.23;100921.97;4149379;28;20044;-64
2023/08/18 09:34:35;;;;;;;;;;;;;;;23.45;62.79;100911.09;4149019;28;20370;-64
2023/08/18 09:36:37;;;;;;;;;;;;;;;23.47;63.11;100910.94;4149421;28;20027;-64
2023/08/18 09:38:41;;;;;;;;;;;;;;;23.48;63.20;100907.28;4148861;28;19929;-63
2023/08/18 09:40:43;;;;;;;;;;;;;;;23.51;63.60;100900.78;4148689;28;20355;-64
2023/08/18 09:42:50;;;;;;;;;;;;;;;23.56;63.35;100903.91;4148777;28;19933;-64
2023/08/18 09:44:52;;;;;;;;;;;;;;;23.58;63.19;100904.63;4148928;28;19983;-64
2023/08/18 09:46:57;;;;;;;;;;;;;;;23.59;62.37;100901.81;4149262;28;20016;-63
2023/08/18 09:49:00;;;;;;;;;;;;;;;23.61;62.68;100899.84;4148774;28;20023;-64
2023/08/18 09:51:05;;;;;;;;;;;;;;;23.61;62.06;100894.47;4148374;28;20376;-65
2023/08/18 09:53:07;;;;;;;;;;;;;;;23.63;62.41;100904.25;4148011;28;19961;-64
2023/08/18 09:55:16;;;;;;;;;;;;;;;23.65;63.42;100889.69;4147586;28;19992;-63
2023/08/18 09:57:33;;;;;;;;;;;;;;;23.69;63.04;100892.94;4148713;28;20041;-64
2023/08/18 09:59:38;;;;;;;;;;;;;;;23.72;62.87;100885.47;4148480;28;19953;-64
2023/08/18 10:01:41;;;;;;;;;;;;;;;23.76;62.44;100884.19;4148017;28;20339;-63
2023/08/18 10:03:46;;;;;;;;;;;;;;;23.78;63.05;100881.41;4148797;28;19965;-64
2023/08/18 10:05:48;;;;;;;;;;;;;;;23.80;63.47;100881.25;4148672;28;20004;-64
2023/08/18 10:07:50;;;;;;;;;;;;;;;23.81;62.57;100880.28;4132599;28;20043;-63
2023/08/18 10:09:52;;;;;;;;;;;;;;;23.82;62.57;100885.50;4139461;28;19936;-63
2023/08/18 10:11:54;;;;;;;;;;;;;;;23.84;62.95;100885.34;4147836;28;20291;-63
2023/08/18 10:13:57;;;;;;;;;;;;;;;23.85;62.50;100887.94;4148901;28;19926;-61
2023/08/18 10:16:03;;;;;;;;;;;;;;;23.87;62.35;100879.72;4148341;28;19930;-64
2023/08/18 10:18:09;;;;;;;;;;;;;;;23.86;62.43;100881.53;4147555;28;20415;-64
2023/08/18 10:20:11;;;;;;;;;;;;;;;23.87;62.23;100885.09;4147820;28;20479;-64
2023/08/18 10:22:16;;;;;;;;;;;;;;;23.86;62.53;100881.53;4148289;28;20020;-64
2023/08/18 10:24:17;;;;;;;;;;;;;;;23.86;62.87;100873.47;4148655;28;20012;-63
2023/08/18 10:26:22;;;;;;;;;;;;;;;23.89;62.65;100872.34;4148069;28;19929;-64
2023/08/18 10:28:28;;;;;;;;;;;;;;;23.92;62.61;100870.28;4148483;28;20402;-62